sensor_id;sensor_type;location;lat;lon;timestamp;temperature;humidity
7384;DHT22;3733;47.994;8.820;2023-06-22T00:00:53;19.40;99.90
7384;DHT22;3733;47.994;8.820;2023-06-22T00:03:20;19.40;99.90
7384;DHT22;3733;47.994;8.820;2023-06-22T00:05:46;19.40;99.90
7384;DHT22;3733;47.994;8.820;2023-06-22T00:08:12;19.30;99.90
7384;DHT22;3733;47.994;8.820;2023-06-22T00:10:38;19.30;99.90
7384;DHT22;3733;47.994;8.820;2023-06-22T00:13:04;19.20;99.90
7384;DHT22;3733;47.994;8.820;2023-06-22T00:15:30;19.20;99.90
7384;DHT22;3733;47.994;8.820;2023-06-22T00:17:56;19.20;99.90
7384;DHT22;3733;47.994;8.820;2023-06-22T00:20:23;19.10;99.90
7384;DHT22;3733;47.994;8.820;2023-06-22T00:22:48;19.10;99.90
7384;DHT22;3733;47.994;8.820;2023-06-22T00:25:14;19.10;99.90
7384;DHT22;3733;47.994;8.820;2023-06-22T00:27:39;19.10;99.90
7384;DHT22;3733;47.994;8.820;2023-06-22T00:30:06;19.00;99.90
7384;DHT22;3733;47.994;8.820;2023-06-22T00:32:31;19.00;99.90
7384;DHT22;3733;47.994;8.820;2023-06-22T00:34:57;19.00;99.90
7384;DHT22;3733;47.994;8.820;2023-06-22T00:37:23;19.00;99.90
7384;DHT22;3733;47.994;8.820;2023-06-22T00:39:51;19.00;99.90
7384;DHT22;3733;47.994;8.820;2023-06-22T00:42:17;19.00;99.90
7384;DHT22;3733;47.994;8.820;2023-06-22T00:44:43;19.00;99.90
7384;DHT22;3733;47.994;8.820;2023-06-22T00:47:11;19.00;99.90
7384;DHT22;3733;47.994;8.820;2023-06-22T00:49:38;18.90;99.90
7384;DHT22;3733;47.994;8.820;2023-06-22T00:52:05;18.90;99.90
7384;DHT22;3733;47.994;8.820;2023-06-22T00:54:37;18.90;99.90
7384;DHT22;3733;47.994;8.820;2023-06-22T00:57:04;18.90;99.90
7384;DHT22;3733;47.994;8.820;2023-06-22T00:59:30;18.90;99.90
7384;DHT22;3733;47.994;8.820;2023-06-22T01:01:57;18.80;99.90
7384;DHT22;3733;47.994;8.820;2023-06-22T01:04:34;18.80;99.90
7384;DHT22;3733;47.994;8.820;2023-06-22T01:12:39;18.80;99.90
7384;DHT22;3733;47.994;8.820;2023-06-22T01:15:11;18.80;99.90
7384;DHT22;3733;47.994;8.820;2023-06-22T01:17:40;18.90;99.90
7384;DHT22;3733;47.994;8.820;2023-06-22T01:20:09;18.80;99.90
7384;DHT22;3733;47.994;8.820;2023-06-22T01:22:54;18.80;99.90
7384;DHT22;3733;47.994;8.820;2023-06-22T01:25:48;18.80;99.90
7384;DHT22;3733;47.994;8.820;2023-06-22T01:28:43;18.80;99.90
7384;DHT22;3733;47.994;8.820;2023-06-22T01:31:10;18.80;99.90
7384;DHT22;3733;47.994;8.820;2023-06-22T01:33:40;18.80;99.90
7384;DHT22;3733;47.994;8.820;2023-06-22T01:36:06;18.80;99.90
7384;DHT22;3733;47.994;8.820;2023-06-22T01:38:33;18.70;99.90
7384;DHT22;3733;47.994;8.820;2023-06-22T01:40:59;18.70;99.90
7384;DHT22;3733;47.994;8.820;2023-06-22T01:43:26;18.70;99.90
7384;DHT22;3733;47.994;8.820;2023-06-22T01:45:56;18.70;99.90
7384;DHT22;3733;47.994;8.820;2023-06-22T01:48:22;18.70;99.90
7384;DHT22;3733;47.994;8.820;2023-06-22T01:50:49;18.70;99.90
7384;DHT22;3733;47.994;8.820;2023-06-22T01:53:14;18.70;99.90
7384;DHT22;3733;47.994;8.820;2023-06-22T01:55:40;18.60;99.90
7384;DHT22;3733;47.994;8.820;2023-06-22T01:58:05;18.60;99.90
7384;DHT22;3733;47.994;8.820;2023-06-22T02:00:37;18.50;99.90
7384;DHT22;3733;47.994;8.820;2023-06-22T02:03:10;18.50;99.90
7384;DHT22;3733;47.994;8.820;2023-06-22T02:05:46;18.50;99.90
7384;DHT22;3733;47.994;8.820;2023-06-22T02:08:20;18.50;99.90
7384;DHT22;3733;47.994;8.820;2023-06-22T02:10:47;18.40;99.90
7384;DHT22;3733;47.994;8.820;2023-06-22T02:13:14;18.40;99.90
7384;DHT22;3733;47.994;8.820;2023-06-22T02:15:40;18.40;99.90
7384;DHT22;3733;47.994;8.820;2023-06-22T02:18:07;18.40;99.90
7384;DHT22;3733;47.994;8.820;2023-06-22T02:20:32;18.40;99.90
7384;DHT22;3733;47.994;8.820;2023-06-22T02:22:58;18.40;99.90
7384;DHT22;3733;47.994;8.820;2023-06-22T02:25:24;18.40;99.90
7384;DHT22;3733;47.994;8.820;2023-06-22T02:27:49;18.30;99.90
7384;DHT22;3733;47.994;8.820;2023-06-22T02:30:15;18.30;99.90
7384;DHT22;3733;47.994;8.820;2023-06-22T02:32:41;18.20;99.90
7384;DHT22;3733;47.994;8.820;2023-06-22T02:35:11;18.20;99.90
7384;DHT22;3733;47.994;8.820;2023-06-22T02:37:38;18.10;99.90
7384;DHT22;3733;47.994;8.820;2023-06-22T02:40:07;18.10;99.90
7384;DHT22;3733;47.994;8.820;2023-06-22T02:42:34;18.10;99.90
7384;DHT22;3733;47.994;8.820;2023-06-22T02:45:00;18.10;99.90
7384;DHT22;3733;47.994;8.820;2023-06-22T02:47:26;18.10;99.90
7384;DHT22;3733;47.994;8.820;2023-06-22T02:49:51;18.10;99.90
7384;DHT22;3733;47.994;8.820;2023-06-22T02:52:17;18.00;99.90
7384;DHT22;3733;47.994;8.820;2023-06-22T02:54:43;18.00;99.90
7384;DHT22;3733;47.994;8.820;2023-06-22T02:57:10;18.00;99.90
7384;DHT22;3733;47.994;8.820;2023-06-22T02:59:39;18.00;99.90
7384;DHT22;3733;47.994;8.820;2023-06-22T03:02:06;18.00;99.90
7384;DHT22;3733;47.994;8.820;2023-06-22T03:04:32;18.00;99.90
7384;DHT22;3733;47.994;8.820;2023-06-22T03:06:57;18.00;99.90
7384;DHT22;3733;47.994;8.820;2023-06-22T03:09:27;17.90;99.90
7384;DHT22;3733;47.994;8.820;2023-06-22T03:11:56;17.90;99.90
7384;DHT22;3733;47.994;8.820;2023-06-22T03:14:21;17.90;99.90
7384;DHT22;3733;47.994;8.820;2023-06-22T03:16:47;17.90;99.90
7384;DHT22;3733;47.994;8.820;2023-06-22T03:19:13;17.80;99.90
7384;DHT22;3733;47.994;8.820;2023-06-22T03:21:39;17.80;99.90
7384;DHT22;3733;47.994;8.820;2023-06-22T03:24:06;17.80;99.90
7384;DHT22;3733;47.994;8.820;2023-06-22T03:26:32;17.80;99.90
7384;DHT22;3733;47.994;8.820;2023-06-22T03:28:58;17.80;99.90
7384;DHT22;3733;47.994;8.820;2023-06-22T03:31:23;17.80;99.90
7384;DHT22;3733;47.994;8.820;2023-06-22T03:33:50;17.80;99.90
7384;DHT22;3733;47.994;8.820;2023-06-22T03:36:17;17.80;99.90
7384;DHT22;3733;47.994;8.820;2023-06-22T03:38:46;17.70;99.90
7384;DHT22;3733;47.994;8.820;2023-06-22T03:41:13;17.70;99.90
7384;DHT22;3733;47.994;8.820;2023-06-22T03:43:38;17.70;99.90
7384;DHT22;3733;47.994;8.820;2023-06-22T03:46:05;17.70;99.90
7384;DHT22;3733;47.994;8.820;2023-06-22T03:48:30;17.70;99.90
7384;DHT22;3733;47.994;8.820;2023-06-22T03:50:56;17.70;99.90
7384;DHT22;3733;47.994;8.820;2023-06-22T03:53:22;17.70;99.90
7384;DHT22;3733;47.994;8.820;2023-06-22T03:55:51;17.70;99.90
7384;DHT22;3733;47.994;8.820;2023-06-22T03:58:18;17.70;99.90
7384;DHT22;3733;47.994;8.820;2023-06-22T04:00:45;17.70;99.90
7384;DHT22;3733;47.994;8.820;2023-06-22T04:03:11;17.70;99.90
7384;DHT22;3733;47.994;8.820;2023-06-22T04:05:38;17.70;99.90
7384;DHT22;3733;47.994;8.820;2023-06-22T04:08:04;17.80;99.90
7384;DHT22;3733;47.994;8.820;2023-06-22T04:10:30;17.80;99.90
7384;DHT22;3733;47.994;8.820;2023-06-22T04:12:56;17.80;99.90
7384;DHT22;3733;47.994;8.820;2023-06-22T04:15:21;17.70;99.90
7384;DHT22;3733;47.994;8.820;2023-06-22T04:17:47;17.80;99.90
7384;DHT22;3733;47.994;8.820;2023-06-22T04:20:13;17.80;99.90
7384;DHT22;3733;47.994;8.820;2023-06-22T04:22:39;17.80;99.90
7384;DHT22;3733;47.994;8.820;2023-06-22T04:25:05;17.80;99.90
7384;DHT22;3733;47.994;8.820;2023-06-22T04:27:33;17.80;99.90
7384;DHT22;3733;47.994;8.820;2023-06-22T04:30:03;17.80;99.90
7384;DHT22;3733;47.994;8.820;2023-06-22T04:32:29;17.80;99.90
7384;DHT22;3733;47.994;8.820;2023-06-22T04:34:54;17.90;99.90
7384;DHT22;3733;47.994;8.820;2023-06-22T04:37:20;17.90;99.90
7384;DHT22;3733;47.994;8.820;2023-06-22T04:39:49;17.90;99.90
7384;DHT22;3733;47.994;8.820;2023-06-22T04:42:14;17.90;99.90
7384;DHT22;3733;47.994;8.820;2023-06-22T04:44:40;18.00;99.90
7384;DHT22;3733;47.994;8.820;2023-06-22T04:47:07;18.00;99.90
7384;DHT22;3733;47.994;8.820;2023-06-22T04:49:35;18.00;99.90
7384;DHT22;3733;47.994;8.820;2023-06-22T04:52:07;18.00;99.90
7384;DHT22;3733;47.994;8.820;2023-06-22T04:54:34;18.10;99.90
7384;DHT22;3733;47.994;8.820;2023-06-22T04:57:04;18.10;99.90
7384;DHT22;3733;47.994;8.820;2023-06-22T04:59:31;18.10;99.90
7384;DHT22;3733;47.994;8.820;2023-06-22T05:01:57;18.10;99.90
7384;DHT22;3733;47.994;8.820;2023-06-22T05:04:24;18.20;99.90
7384;DHT22;3733;47.994;8.820;2023-06-22T05:06:50;18.20;99.90
7384;DHT22;3733;47.994;8.820;2023-06-22T05:09:16;18.30;99.90
7384;DHT22;3733;47.994;8.820;2023-06-22T05:11:43;18.30;99.90
7384;DHT22;3733;47.994;8.820;2023-06-22T05:14:09;18.40;99.90
7384;DHT22;3733;47.994;8.820;2023-06-22T05:16:35;18.40;99.90
7384;DHT22;3733;47.994;8.820;2023-06-22T05:19:01;18.50;99.90
7384;DHT22;3733;47.994;8.820;2023-06-22T05:21:29;18.50;99.90
7384;DHT22;3733;47.994;8.820;2023-06-22T05:23:55;18.60;99.90
7384;DHT22;3733;47.994;8.820;2023-06-22T05:26:21;18.70;99.90
7384;DHT22;3733;47.994;8.820;2023-06-22T05:28:47;18.80;99.90
7384;DHT22;3733;47.994;8.820;2023-06-22T05:31:14;18.90;99.90
7384;DHT22;3733;47.994;8.820;2023-06-22T05:33:41;19.00;99.90
7384;DHT22;3733;47.994;8.820;2023-06-22T05:36:07;19.10;99.90
7384;DHT22;3733;47.994;8.820;2023-06-22T05:38:33;19.10;99.90
7384;DHT22;3733;47.994;8.820;2023-06-22T05:40:58;19.20;99.90
7384;DHT22;3733;47.994;8.820;2023-06-22T05:43:24;19.30;99.90
7384;DHT22;3733;47.994;8.820;2023-06-22T05:45:50;19.40;99.90
7384;DHT22;3733;47.994;8.820;2023-06-22T05:48:15;19.50;99.90
7384;DHT22;3733;47.994;8.820;2023-06-22T05:50:41;19.60;99.90
7384;DHT22;3733;47.994;8.820;2023-06-22T05:53:07;19.70;99.90
7384;DHT22;3733;47.994;8.820;2023-06-22T05:55:32;19.80;99.90
7384;DHT22;3733;47.994;8.820;2023-06-22T05:57:58;19.90;99.90
7384;DHT22;3733;47.994;8.820;2023-06-22T06:00:24;19.90;99.90
7384;DHT22;3733;47.994;8.820;2023-06-22T06:02:50;20.00;99.90
7384;DHT22;3733;47.994;8.820;2023-06-22T06:05:16;20.10;99.90
7384;DHT22;3733;47.994;8.820;2023-06-22T06:07:45;20.10;99.90
7384;DHT22;3733;47.994;8.820;2023-06-22T06:10:11;20.20;99.90
7384;DHT22;3733;47.994;8.820;2023-06-22T06:12:37;20.30;99.90
7384;DHT22;3733;47.994;8.820;2023-06-22T06:15:03;20.40;99.90
7384;DHT22;3733;47.994;8.820;2023-06-22T06:17:29;20.40;99.90
7384;DHT22;3733;47.994;8.820;2023-06-22T06:19:55;20.50;99.90
7384;DHT22;3733;47.994;8.820;2023-06-22T06:22:21;20.60;99.90
7384;DHT22;3733;47.994;8.820;2023-06-22T06:24:49;20.60;99.90
7384;DHT22;3733;47.994;8.820;2023-06-22T06:27:14;20.70;99.90
7384;DHT22;3733;47.994;8.820;2023-06-22T06:29:40;20.80;99.90
7384;DHT22;3733;47.994;8.820;2023-06-22T06:32:06;20.80;99.90
7384;DHT22;3733;47.994;8.820;2023-06-22T06:34:32;20.90;99.90
7384;DHT22;3733;47.994;8.820;2023-06-22T06:36:57;20.90;99.90
7384;DHT22;3733;47.994;8.820;2023-06-22T06:39:23;20.90;99.90
7384;DHT22;3733;47.994;8.820;2023-06-22T06:41:49;21.00;99.90
7384;DHT22;3733;47.994;8.820;2023-06-22T06:44:14;21.00;99.90
7384;DHT22;3733;47.994;8.820;2023-06-22T06:46:40;21.00;99.90
7384;DHT22;3733;47.994;8.820;2023-06-22T06:49:07;21.10;99.90
7384;DHT22;3733;47.994;8.820;2023-06-22T06:51:34;21.20;99.90
7384;DHT22;3733;47.994;8.820;2023-06-22T06:53:59;21.30;99.90
7384;DHT22;3733;47.994;8.820;2023-06-22T06:56:25;21.40;99.90
7384;DHT22;3733;47.994;8.820;2023-06-22T06:58:51;21.50;99.90
7384;DHT22;3733;47.994;8.820;2023-06-22T07:01:17;21.60;99.90
7384;DHT22;3733;47.994;8.820;2023-06-22T07:03:42;21.70;99.90
7384;DHT22;3733;47.994;8.820;2023-06-22T07:06:09;21.80;99.90
7384;DHT22;3733;47.994;8.820;2023-06-22T07:08:34;21.90;99.90
7384;DHT22;3733;47.994;8.820;2023-06-22T07:11:05;21.90;99.90
7384;DHT22;3733;47.994;8.820;2023-06-22T07:13:30;22.00;99.90
7384;DHT22;3733;47.994;8.820;2023-06-22T07:15:56;22.00;99.90
7384;DHT22;3733;47.994;8.820;2023-06-22T07:18:21;22.10;99.90
7384;DHT22;3733;47.994;8.820;2023-06-22T07:20:47;22.20;99.90
7384;DHT22;3733;47.994;8.820;2023-06-22T07:23:13;22.20;99.90
7384;DHT22;3733;47.994;8.820;2023-06-22T07:25:38;22.30;99.90
7384;DHT22;3733;47.994;8.820;2023-06-22T07:28:05;22.40;99.90
7384;DHT22;3733;47.994;8.820;2023-06-22T07:30:32;22.50;99.90
7384;DHT22;3733;47.994;8.820;2023-06-22T07:32:59;22.60;99.90
7384;DHT22;3733;47.994;8.820;2023-06-22T07:35:29;22.70;99.90
7384;DHT22;3733;47.994;8.820;2023-06-22T07:37:54;22.80;99.90
7384;DHT22;3733;47.994;8.820;2023-06-22T07:40:20;22.80;99.90
7384;DHT22;3733;47.994;8.820;2023-06-22T07:42:46;22.90;99.90
7384;DHT22;3733;47.994;8.820;2023-06-22T07:45:13;23.00;99.90
7384;DHT22;3733;47.994;8.820;2023-06-22T07:47:39;23.10;99.90
7384;DHT22;3733;47.994;8.820;2023-06-22T07:50:05;23.10;99.90
7384;DHT22;3733;47.994;8.820;2023-06-22T07:52:31;23.20;99.90
7384;DHT22;3733;47.994;8.820;2023-06-22T07:54:57;23.20;99.90
7384;DHT22;3733;47.994;8.820;2023-06-22T07:57:23;23.30;99.90
7384;DHT22;3733;47.994;8.820;2023-06-22T07:59:57;23.40;98.30
7384;DHT22;3733;47.994;8.820;2023-06-22T08:02:24;23.30;96.70
7384;DHT22;3733;47.994;8.820;2023-06-22T08:04:49;23.30;97.10
7384;DHT22;3733;47.994;8.820;2023-06-22T08:07:15;23.20;97.80
7384;DHT22;3733;47.994;8.820;2023-06-22T08:09:46;23.20;97.90
7384;DHT22;3733;47.994;8.820;2023-06-22T08:12:12;23.20;96.50
7384;DHT22;3733;47.994;8.820;2023-06-22T08:14:38;23.20;97.70
7384;DHT22;3733;47.994;8.820;2023-06-22T08:17:04;23.30;99.90
7384;DHT22;3733;47.994;8.820;2023-06-22T08:19:30;23.40;99.90
7384;DHT22;3733;47.994;8.820;2023-06-22T08:21:56;23.60;98.30
7384;DHT22;3733;47.994;8.820;2023-06-22T08:24:22;23.70;97.20
7384;DHT22;3733;47.994;8.820;2023-06-22T08:26:51;23.90;98.70
7384;DHT22;3733;47.994;8.820;2023-06-22T08:29:16;24.00;98.10
7384;DHT22;3733;47.994;8.820;2023-06-22T08:31:42;24.10;96.60
7384;DHT22;3733;47.994;8.820;2023-06-22T08:34:07;24.20;93.90
7384;DHT22;3733;47.994;8.820;2023-06-22T08:36:33;24.30;94.40
7384;DHT22;3733;47.994;8.820;2023-06-22T08:39:06;24.40;98.70
7384;DHT22;3733;47.994;8.820;2023-06-22T08:41:32;24.50;94.20
7384;DHT22;3733;47.994;8.820;2023-06-22T08:43:58;24.60;94.80
7384;DHT22;3733;47.994;8.820;2023-06-22T08:46:23;24.70;95.90
7384;DHT22;3733;47.994;8.820;2023-06-22T08:48:56;24.80;94.60
7384;DHT22;3733;47.994;8.820;2023-06-22T08:51:22;24.90;91.70
7384;DHT22;3733;47.994;8.820;2023-06-22T08:53:48;25.00;92.40
7384;DHT22;3733;47.994;8.820;2023-06-22T08:56:13;25.00;90.00
7384;DHT22;3733;47.994;8.820;2023-06-22T08:58:39;25.10;91.30
7384;DHT22;3733;47.994;8.820;2023-06-22T09:01:05;25.30;91.90
7384;DHT22;3733;47.994;8.820;2023-06-22T09:03:30;25.40;88.90
7384;DHT22;3733;47.994;8.820;2023-06-22T09:05:58;25.50;89.40
7384;DHT22;3733;47.994;8.820;2023-06-22T09:08:24;25.60;87.20
7384;DHT22;3733;47.994;8.820;2023-06-22T09:10:49;25.80;86.60
7384;DHT22;3733;47.994;8.820;2023-06-22T09:13:15;25.90;83.70
7384;DHT22;3733;47.994;8.820;2023-06-22T09:15:40;26.10;76.40
7384;DHT22;3733;47.994;8.820;2023-06-22T09:18:06;26.30;75.90
7384;DHT22;3733;47.994;8.820;2023-06-22T09:20:32;26.50;72.50
7384;DHT22;3733;47.994;8.820;2023-06-22T09:22:57;26.70;69.80
7384;DHT22;3733;47.994;8.820;2023-06-22T09:25:23;26.70;69.50
7384;DHT22;3733;47.994;8.820;2023-06-22T09:27:49;26.80;70.50
7384;DHT22;3733;47.994;8.820;2023-06-22T09:30:14;26.80;70.20
7384;DHT22;3733;47.994;8.820;2023-06-22T09:32:40;26.80;68.80
7384;DHT22;3733;47.994;8.820;2023-06-22T09:35:06;26.80;68.10
7384;DHT22;3733;47.994;8.820;2023-06-22T09:37:32;26.80;66.90
7384;DHT22;3733;47.994;8.820;2023-06-22T09:39:58;26.90;65.10
7384;DHT22;3733;47.994;8.820;2023-06-22T09:42:23;26.90;65.00
7384;DHT22;3733;47.994;8.820;2023-06-22T09:44:49;27.00;65.10
7384;DHT22;3733;47.994;8.820;2023-06-22T09:47:14;27.10;64.50
7384;DHT22;3733;47.994;8.820;2023-06-22T09:49:40;27.20;64.50
7384;DHT22;3733;47.994;8.820;2023-06-22T09:52:06;27.40;64.40
7384;DHT22;3733;47.994;8.820;2023-06-22T09:54:31;27.60;63.40
7384;DHT22;3733;47.994;8.820;2023-06-22T09:56:57;27.70;62.60
7384;DHT22;3733;47.994;8.820;2023-06-22T09:59:23;27.80;62.10
7384;DHT22;3733;47.994;8.820;2023-06-22T10:01:48;27.80;61.90
7384;DHT22;3733;47.994;8.820;2023-06-22T10:04:14;27.70;60.70
7384;DHT22;3733;47.994;8.820;2023-06-22T10:06:39;27.60;60.70
7384;DHT22;3733;47.994;8.820;2023-06-22T10:09:06;27.60;61.10
7384;DHT22;3733;47.994;8.820;2023-06-22T10:11:33;27.50;61.40
7384;DHT22;3733;47.994;8.820;2023-06-22T10:14:00;27.50;61.30
7384;DHT22;3733;47.994;8.820;2023-06-22T10:16:32;27.40;61.20
7384;DHT22;3733;47.994;8.820;2023-06-22T10:18:58;27.40;61.50
7384;DHT22;3733;47.994;8.820;2023-06-22T10:21:24;27.40;61.80
7384;DHT22;3733;47.994;8.820;2023-06-22T10:23:51;27.40;61.20
7384;DHT22;3733;47.994;8.820;2023-06-22T10:26:17;27.40;61.50
7384;DHT22;3733;47.994;8.820;2023-06-22T10:28:42;27.40;63.10
7384;DHT22;3733;47.994;8.820;2023-06-22T10:31:08;27.40;66.40
7384;DHT22;3733;47.994;8.820;2023-06-22T10:33:34;27.40;69.30
7384;DHT22;3733;47.994;8.820;2023-06-22T10:35:59;27.50;71.00
7384;DHT22;3733;47.994;8.820;2023-06-22T10:38:25;27.50;70.80
7384;DHT22;3733;47.994;8.820;2023-06-22T10:40:50;27.40;72.00
7384;DHT22;3733;47.994;8.820;2023-06-22T10:43:16;27.40;72.30
7384;DHT22;3733;47.994;8.820;2023-06-22T10:45:42;27.40;72.00
7384;DHT22;3733;47.994;8.820;2023-06-22T10:48:07;27.40;72.80
7384;DHT22;3733;47.994;8.820;2023-06-22T10:50:33;27.30;72.70
7384;DHT22;3733;47.994;8.820;2023-06-22T10:52:59;27.30;72.50
7384;DHT22;3733;47.994;8.820;2023-06-22T10:55:24;27.20;73.10
7384;DHT22;3733;47.994;8.820;2023-06-22T10:57:50;27.10;74.20
7384;DHT22;3733;47.994;8.820;2023-06-22T11:00:16;27.00;75.30
7384;DHT22;3733;47.994;8.820;2023-06-22T11:02:41;27.00;75.40
7384;DHT22;3733;47.994;8.820;2023-06-22T11:05:07;26.90;75.20
7384;DHT22;3733;47.994;8.820;2023-06-22T11:07:33;26.90;75.50
7384;DHT22;3733;47.994;8.820;2023-06-22T11:09:59;26.90;75.30
7384;DHT22;3733;47.994;8.820;2023-06-22T11:12:24;27.00;76.10
7384;DHT22;3733;47.994;8.820;2023-06-22T11:14:50;27.20;73.20
7384;DHT22;3733;47.994;8.820;2023-06-22T11:17:17;27.40;75.20
7384;DHT22;3733;47.994;8.820;2023-06-22T11:19:44;27.60;76.00
7384;DHT22;3733;47.994;8.820;2023-06-22T11:22:10;27.80;76.00
7384;DHT22;3733;47.994;8.820;2023-06-22T11:24:35;27.90;72.50
7384;DHT22;3733;47.994;8.820;2023-06-22T11:27:01;27.90;70.10
7384;DHT22;3733;47.994;8.820;2023-06-22T11:29:27;27.80;68.90
7384;DHT22;3733;47.994;8.820;2023-06-22T11:31:52;27.80;70.40
7384;DHT22;3733;47.994;8.820;2023-06-22T11:34:18;27.70;70.40
7384;DHT22;3733;47.994;8.820;2023-06-22T11:36:44;27.60;71.10
7384;DHT22;3733;47.994;8.820;2023-06-22T11:39:10;27.60;71.70
7384;DHT22;3733;47.994;8.820;2023-06-22T11:41:37;27.50;71.40
7384;DHT22;3733;47.994;8.820;2023-06-22T11:44:03;27.40;71.50
7384;DHT22;3733;47.994;8.820;2023-06-22T11:46:29;27.40;72.70
7384;DHT22;3733;47.994;8.820;2023-06-22T11:48:55;27.30;72.90
7384;DHT22;3733;47.994;8.820;2023-06-22T11:51:21;27.20;73.70
7384;DHT22;3733;47.994;8.820;2023-06-22T11:53:46;27.10;72.70
7384;DHT22;3733;47.994;8.820;2023-06-22T11:56:12;27.00;73.90
7384;DHT22;3733;47.994;8.820;2023-06-22T11:58:37;27.00;74.80
7384;DHT22;3733;47.994;8.820;2023-06-22T12:01:03;26.90;76.10
7384;DHT22;3733;47.994;8.820;2023-06-22T12:03:29;26.80;78.20
7384;DHT22;3733;47.994;8.820;2023-06-22T12:05:55;26.70;79.80
7384;DHT22;3733;47.994;8.820;2023-06-22T12:08:21;26.60;79.80
7384;DHT22;3733;47.994;8.820;2023-06-22T12:10:47;26.60;82.00
7384;DHT22;3733;47.994;8.820;2023-06-22T12:13:12;26.50;82.20
7384;DHT22;3733;47.994;8.820;2023-06-22T12:15:38;26.50;82.80
7384;DHT22;3733;47.994;8.820;2023-06-22T12:18:04;26.50;82.30
7384;DHT22;3733;47.994;8.820;2023-06-22T12:20:29;26.50;81.80
7384;DHT22;3733;47.994;8.820;2023-06-22T12:22:55;26.50;81.60
7384;DHT22;3733;47.994;8.820;2023-06-22T12:25:23;26.60;80.30
7384;DHT22;3733;47.994;8.820;2023-06-22T12:27:49;26.60;80.80
7384;DHT22;3733;47.994;8.820;2023-06-22T12:30:16;26.70;78.90
7384;DHT22;3733;47.994;8.820;2023-06-22T12:32:42;26.80;79.30
7384;DHT22;3733;47.994;8.820;2023-06-22T12:35:07;26.90;78.10
7384;DHT22;3733;47.994;8.820;2023-06-22T12:37:40;27.30;77.40
7384;DHT22;3733;47.994;8.820;2023-06-22T12:40:06;27.60;74.50
7384;DHT22;3733;47.994;8.820;2023-06-22T12:42:32;27.70;70.90
7384;DHT22;3733;47.994;8.820;2023-06-22T12:44:57;27.90;71.80
7384;DHT22;3733;47.994;8.820;2023-06-22T12:47:23;28.10;72.60
7384;DHT22;3733;47.994;8.820;2023-06-22T12:49:48;28.20;70.00
7384;DHT22;3733;47.994;8.820;2023-06-22T12:52:14;28.20;69.30
7384;DHT22;3733;47.994;8.820;2023-06-22T12:54:40;28.20;69.90
7384;DHT22;3733;47.994;8.820;2023-06-22T12:57:05;28.00;65.80
7384;DHT22;3733;47.994;8.820;2023-06-22T12:59:31;27.80;62.80
7384;DHT22;3733;47.994;8.820;2023-06-22T13:01:57;27.70;63.90
7384;DHT22;3733;47.994;8.820;2023-06-22T13:04:22;27.60;66.20
7384;DHT22;3733;47.994;8.820;2023-06-22T13:06:48;27.50;65.50
7384;DHT22;3733;47.994;8.820;2023-06-22T13:09:14;27.50;65.70
7384;DHT22;3733;47.994;8.820;2023-06-22T13:11:41;27.50;64.60
7384;DHT22;3733;47.994;8.820;2023-06-22T13:14:07;27.60;63.80
7384;DHT22;3733;47.994;8.820;2023-06-22T13:16:32;27.80;63.70
7384;DHT22;3733;47.994;8.820;2023-06-22T13:18:58;27.90;62.60
7384;DHT22;3733;47.994;8.820;2023-06-22T13:21:24;28.00;62.10
7384;DHT22;3733;47.994;8.820;2023-06-22T13:23:49;27.90;60.50
7384;DHT22;3733;47.994;8.820;2023-06-22T13:26:15;27.80;57.50
7384;DHT22;3733;47.994;8.820;2023-06-22T13:28:41;27.80;57.30
7384;DHT22;3733;47.994;8.820;2023-06-22T13:31:06;27.60;55.90
7384;DHT22;3733;47.994;8.820;2023-06-22T13:33:32;27.60;55.80
7384;DHT22;3733;47.994;8.820;2023-06-22T13:35:57;27.50;53.00
7384;DHT22;3733;47.994;8.820;2023-06-22T13:38:23;27.50;51.80
7384;DHT22;3733;47.994;8.820;2023-06-22T13:40:49;27.40;51.20
7384;DHT22;3733;47.994;8.820;2023-06-22T13:43:15;27.40;51.10
7384;DHT22;3733;47.994;8.820;2023-06-22T13:45:41;27.40;50.70
7384;DHT22;3733;47.994;8.820;2023-06-22T13:48:08;27.60;51.20
7384;DHT22;3733;47.994;8.820;2023-06-22T13:50:33;27.70;50.70
7384;DHT22;3733;47.994;8.820;2023-06-22T13:52:59;27.90;50.80
7384;DHT22;3733;47.994;8.820;2023-06-22T13:55:24;28.10;51.40
7384;DHT22;3733;47.994;8.820;2023-06-22T13:57:51;28.20;51.40
7384;DHT22;3733;47.994;8.820;2023-06-22T14:00:17;28.30;50.60
7384;DHT22;3733;47.994;8.820;2023-06-22T14:02:43;28.40;49.70
7384;DHT22;3733;47.994;8.820;2023-06-22T14:05:09;28.60;49.30
7384;DHT22;3733;47.994;8.820;2023-06-22T14:07:36;28.70;49.10
7384;DHT22;3733;47.994;8.820;2023-06-22T14:10:02;28.70;48.80
7384;DHT22;3733;47.994;8.820;2023-06-22T14:12:28;28.60;49.20
7384;DHT22;3733;47.994;8.820;2023-06-22T14:14:54;28.50;47.00
7384;DHT22;3733;47.994;8.820;2023-06-22T14:17:19;28.30;47.20
7384;DHT22;3733;47.994;8.820;2023-06-22T14:19:51;28.20;47.60
7384;DHT22;3733;47.994;8.820;2023-06-22T14:22:21;28.10;48.70
7384;DHT22;3733;47.994;8.820;2023-06-22T14:24:48;28.10;48.10
7384;DHT22;3733;47.994;8.820;2023-06-22T14:27:14;28.10;47.90
7384;DHT22;3733;47.994;8.820;2023-06-22T14:29:39;28.10;47.90
7384;DHT22;3733;47.994;8.820;2023-06-22T14:32:05;28.20;47.70
7384;DHT22;3733;47.994;8.820;2023-06-22T14:34:32;28.30;47.20
7384;DHT22;3733;47.994;8.820;2023-06-22T14:36:58;28.30;47.40
7384;DHT22;3733;47.994;8.820;2023-06-22T14:39:23;28.30;46.70
7384;DHT22;3733;47.994;8.820;2023-06-22T14:41:49;28.20;47.10
7384;DHT22;3733;47.994;8.820;2023-06-22T14:44:15;28.10;47.60
7384;DHT22;3733;47.994;8.820;2023-06-22T14:46:41;28.00;47.50
7384;DHT22;3733;47.994;8.820;2023-06-22T14:49:06;27.90;47.00
7384;DHT22;3733;47.994;8.820;2023-06-22T14:51:32;27.70;46.90
7384;DHT22;3733;47.994;8.820;2023-06-22T14:53:57;27.60;46.70
7384;DHT22;3733;47.994;8.820;2023-06-22T14:56:23;27.50;46.80
7384;DHT22;3733;47.994;8.820;2023-06-22T14:58:48;27.30;47.20
7384;DHT22;3733;47.994;8.820;2023-06-22T15:01:16;27.20;47.90
7384;DHT22;3733;47.994;8.820;2023-06-22T15:03:42;27.10;48.70
7384;DHT22;3733;47.994;8.820;2023-06-22T15:06:08;27.00;49.30
7384;DHT22;3733;47.994;8.820;2023-06-22T15:08:34;26.80;50.40
7384;DHT22;3733;47.994;8.820;2023-06-22T15:11:00;26.70;52.30
7384;DHT22;3733;47.994;8.820;2023-06-22T15:13:30;26.60;54.50
7384;DHT22;3733;47.994;8.820;2023-06-22T15:15:59;26.40;53.80
7384;DHT22;3733;47.994;8.820;2023-06-22T15:18:25;26.30;53.10
7384;DHT22;3733;47.994;8.820;2023-06-22T15:20:50;26.10;53.50
7384;DHT22;3733;47.994;8.820;2023-06-22T15:23:17;26.00;54.70
7384;DHT22;3733;47.994;8.820;2023-06-22T15:25:42;25.90;54.80
7384;DHT22;3733;47.994;8.820;2023-06-22T15:28:09;25.80;56.10
7384;DHT22;3733;47.994;8.820;2023-06-22T15:30:35;25.70;57.90
7384;DHT22;3733;47.994;8.820;2023-06-22T15:33:01;25.60;58.00
7384;DHT22;3733;47.994;8.820;2023-06-22T15:35:27;25.40;59.10
7384;DHT22;3733;47.994;8.820;2023-06-22T15:37:52;25.40;61.00
7384;DHT22;3733;47.994;8.820;2023-06-22T15:40:18;25.20;61.60
7384;DHT22;3733;47.994;8.820;2023-06-22T15:42:44;25.20;63.20
7384;DHT22;3733;47.994;8.820;2023-06-22T15:45:11;25.20;64.40
7384;DHT22;3733;47.994;8.820;2023-06-22T15:47:37;25.20;67.50
7384;DHT22;3733;47.994;8.820;2023-06-22T15:50:03;25.40;65.60
7384;DHT22;3733;47.994;8.820;2023-06-22T15:52:29;25.40;63.90
7384;DHT22;3733;47.994;8.820;2023-06-22T15:54:55;25.40;61.10
7384;DHT22;3733;47.994;8.820;2023-06-22T15:57:23;25.40;62.80
7384;DHT22;3733;47.994;8.820;2023-06-22T15:59:49;25.30;62.30
7384;DHT22;3733;47.994;8.820;2023-06-22T16:02:14;25.20;62.90